Time;durP1;ratioP1;P1;durP2;ratioP2;P2;SDS_P1;SDS_P2;PMS_P1;PMS_P2;Temp;Humidity;BMP_temperature;BMP_pressure;BME280_temperature;BME280_humidity;BME280_pressure;Samples;Min_cycle;Max_cycle;Signal;HPM_P1;HPM_P2
2022/08/28 00:02:09;;;;;;;5.63;5.17;;;;;;;;;;4985899;28;20437;-69
2022/08/28 00:04:35;;;;;;;5.13;4.60;;;;;;;;;;4985762;28;20445;-69
2022/08/28 00:07:02;;;;;;;6.00;4.90;;;;;;;;;;4984769;28;20945;-69
2022/08/28 00:09:28;;;;;;;4.47;4.27;;;;;;;;;;4987811;28;20448;-69
2022/08/28 00:11:54;;;;;;;4.67;3.93;;;;;;;;;;4987162;28;20429;-69
2022/08/28 00:14:21;;;;;;;5.17;4.87;;;;;;;;;;4987461;28;20441;-69
2022/08/28 00:16:48;;;;;;;5.30;4.83;;;;;;;;;;4986846;28;20840;-69
2022/08/28 00:19:15;;;;;;;9.50;5.00;;;;;;;;;;4986440;28;20480;-69
2022/08/28 00:21:41;;;;;;;3.80;3.80;;;;;;;;;;4987135;28;20952;-68
2022/08/28 00:24:07;;;;;;;3.33;3.30;;;;;;;;;;4988774;28;20531;-67
2022/08/28 00:29:18;;;;;;;5.60;5.40;;;;;;;;;;4986661;28;20534;-69
2022/08/28 00:31:44;;;;;;;5.37;4.90;;;;;;;;;;5001795;28;20952;-69
2022/08/28 00:34:10;;;;;;;6.70;6.10;;;;;;;;;;4984137;28;20544;-69
2022/08/28 00:36:37;;;;;;;6.90;6.40;;;;;;;;;;4984550;28;20439;-69
2022/08/28 00:39:04;;;;;;;6.87;6.57;;;;;;;;;;4986331;28;20487;-69
2022/08/28 00:41:30;;;;;;;7.77;5.60;;;;;;;;;;4988107;28;20918;-69
2022/08/28 00:44:08;;;;;;;4.90;4.70;;;;;;;;;;4985181;28;20441;-67
2022/08/28 00:46:34;;;;;;;6.10;5.80;;;;;;;;;;4985933;28;21221;-69
2022/08/28 00:49:00;;;;;;;7.60;6.10;;;;;;;;;;4984600;28;20473;-69
2022/08/28 00:54:11;;;;;;;6.37;6.17;;;;;;;;;;4982937;28;20431;-69
2022/08/28 00:56:39;;;;;;;6.43;5.93;;;;;;;;;;4987882;28;20807;-69
2022/08/28 00:59:07;;;;;;;5.60;5.10;;;;;;;;;;5002046;28;20535;-68
2022/08/28 01:01:34;;;;;;;6.20;5.80;;;;;;;;;;4986985;28;20455;-69
2022/08/28 01:04:01;;;;;;;6.10;5.50;;;;;;;;;;4981053;28;20495;-69
2022/08/28 01:06:27;;;;;;;6.57;6.17;;;;;;;;;;4986354;28;20539;-70
2022/08/28 01:08:53;;;;;;;7.10;6.47;;;;;;;;;;4985333;28;20471;-69
2022/08/28 01:11:19;;;;;;;6.87;6.50;;;;;;;;;;4987323;28;20440;-69
2022/08/28 01:13:47;;;;;;;7.60;6.80;;;;;;;;;;4985076;28;20440;-69
2022/08/28 01:16:15;;;;;;;7.20;6.70;;;;;;;;;;4986057;28;20949;-68
2022/08/28 01:18:42;;;;;;;7.00;6.50;;;;;;;;;;5002652;28;20485;-69
2022/08/28 01:21:16;;;;;;;3.70;3.60;;;;;;;;;;5004905;28;20426;-69
2022/08/28 01:24:00;;;;;;;6.50;6.00;;;;;;;;;;4988580;28;20497;-70
2022/08/28 01:26:27;;;;;;;5.40;5.30;;;;;;;;;;4998629;28;20480;-70
2022/08/28 01:28:54;;;;;;;6.70;6.20;;;;;;;;;;4991391;28;20483;-69
2022/08/28 01:31:20;;;;;;;6.57;6.27;;;;;;;;;;4989092;28;20818;-69
2022/08/28 01:33:47;;;;;;;6.37;6.07;;;;;;;;;;4990483;28;20437;-69
2022/08/28 01:36:14;;;;;;;6.40;5.87;;;;;;;;;;4987161;28;20925;-70
2022/08/28 01:38:41;;;;;;;5.40;5.07;;;;;;;;;;4987168;28;20532;-68
2022/08/28 01:41:08;;;;;;;4.87;4.67;;;;;;;;;;4989100;28;20929;-69
2022/08/28 01:43:34;;;;;;;6.60;6.20;;;;;;;;;;4989729;28;20444;-69
2022/08/28 01:46:01;;;;;;;8.00;5.60;;;;;;;;;;4991393;28;21912;-69
2022/08/28 01:48:29;;;;;;;7.17;4.60;;;;;;;;;;4988631;28;20444;-69
2022/08/28 01:50:55;;;;;;;5.33;4.83;;;;;;;;;;4988155;28;20430;-69
2022/08/28 01:53:25;;;;;;;14.43;5.67;;;;;;;;;;4989370;28;20440;-68
2022/08/28 01:55:53;;;;;;;5.73;5.17;;;;;;;;;;4990535;28;20444;-69
2022/08/28 01:58:19;;;;;;;5.63;5.30;;;;;;;;;;4989306;28;20489;-69
2022/08/28 02:00:45;;;;;;;7.37;6.10;;;;;;;;;;4990978;28;20433;-68
2022/08/28 02:03:11;;;;;;;8.87;6.53;;;;;;;;;;4983602;28;20444;-68
2022/08/28 02:05:38;;;;;;;6.50;6.00;;;;;;;;;;4988171;28;20444;-69
2022/08/28 02:08:04;;;;;;;6.67;6.03;;;;;;;;;;4989470;28;20448;-69
2022/08/28 02:10:32;;;;;;;6.13;5.77;;;;;;;;;;4988994;28;20428;-69
2022/08/28 02:12:58;;;;;;;7.47;6.73;;;;;;;;;;4989737;28;20449;-69
2022/08/28 02:15:24;;;;;;;6.40;5.90;;;;;;;;;;4990675;28;20845;-68
2022/08/28 02:17:51;;;;;;;9.40;6.00;;;;;;;;;;4991120;28;20502;-69
2022/08/28 02:20:17;;;;;;;5.57;5.23;;;;;;;;;;4987589;28;20437;-69
2022/08/28 02:22:44;;;;;;;4.67;4.37;;;;;;;;;;4990083;28;20520;-69
2022/08/28 02:25:10;;;;;;;4.10;3.30;;;;;;;;;;4990935;28;20472;-68
2022/08/28 02:27:37;;;;;;;4.33;4.07;;;;;;;;;;4985855;28;20588;-70
2022/08/28 02:30:04;;;;;;;5.27;4.40;;;;;;;;;;5002143;28;20436;-69
2022/08/28 02:32:30;;;;;;;3.60;3.50;;;;;;;;;;5003435;28;20531;-70
2022/08/28 02:34:56;;;;;;;6.97;3.60;;;;;;;;;;4989168;28;20861;-69
2022/08/28 02:37:23;;;;;;;5.10;4.60;;;;;;;;;;4987303;28;20437;-69
2022/08/28 02:39:49;;;;;;;4.67;4.40;;;;;;;;;;4987186;28;20472;-69
2022/08/28 02:42:15;;;;;;;4.57;4.27;;;;;;;;;;4990543;28;20772;-69
2022/08/28 02:44:41;;;;;;;5.93;5.50;;;;;;;;;;4989073;28;20439;-69
2022/08/28 02:47:07;;;;;;;4.93;4.53;;;;;;;;;;4989756;28;20938;-70
2022/08/28 02:49:34;;;;;;;7.47;4.20;;;;;;;;;;4989787;28;20469;-69
2022/08/28 02:51:59;;;;;;;5.47;5.17;;;;;;;;;;4990583;28;20449;-69
2022/08/28 02:54:26;;;;;;;4.83;4.63;;;;;;;;;;4986825;28;20448;-67
2022/08/28 02:56:53;;;;;;;5.40;5.20;;;;;;;;;;4986480;28;20445;-69
2022/08/28 02:59:19;;;;;;;5.37;5.00;;;;;;;;;;4989511;28;20532;-69
2022/08/28 03:01:45;;;;;;;5.50;5.17;;;;;;;;;;4984860;28;20536;-69
2022/08/28 03:04:11;;;;;;;5.80;5.33;;;;;;;;;;4969989;28;20441;-68
2022/08/28 03:06:37;;;;;;;5.33;5.13;;;;;;;;;;4989330;28;20437;-69
2022/08/28 03:09:03;;;;;;;5.77;5.40;;;;;;;;;;4986323;28;20472;-69
2022/08/28 03:11:29;;;;;;;5.77;5.47;;;;;;;;;;4989146;28;21014;-69
2022/08/28 03:13:55;;;;;;;5.60;5.30;;;;;;;;;;4988243;28;20477;-69
2022/08/28 03:16:21;;;;;;;8.00;5.33;;;;;;;;;;4987001;28;20440;-69
2022/08/28 03:18:47;;;;;;;9.23;6.03;;;;;;;;;;4986266;28;20488;-69
2022/08/28 03:21:13;;;;;;;6.30;5.90;;;;;;;;;;4986851;28;20442;-68
2022/08/28 03:23:39;;;;;;;6.60;6.10;;;;;;;;;;4987777;28;20441;-69
2022/08/28 03:26:07;;;;;;;5.83;5.43;;;;;;;;;;4989014;28;20433;-69
2022/08/28 03:28:37;;;;;;;8.43;6.00;;;;;;;;;;4988424;28;20483;-68
2022/08/28 03:31:04;;;;;;;7.73;6.70;;;;;;;;;;4986458;28;20443;-67
2022/08/28 03:33:30;;;;;;;6.20;5.73;;;;;;;;;;4987415;28;20429;-68
2022/08/28 03:35:58;;;;;;;6.37;5.97;;;;;;;;;;4984947;28;20429;-67
2022/08/28 03:38:24;;;;;;;6.93;6.33;;;;;;;;;;4987806;28;20487;-68
2022/08/28 03:40:50;;;;;;;5.83;5.43;;;;;;;;;;4987709;28;20464;-69
2022/08/28 03:43:17;;;;;;;7.60;7.10;;;;;;;;;;4988165;28;20469;-68
2022/08/28 03:45:57;;;;;;;6.03;5.63;;;;;;;;;;4988064;28;20441;-69
2022/08/28 03:48:24;;;;;;;6.50;5.47;;;;;;;;;;4989968;28;20413;-68
2022/08/28 03:50:52;;;;;;;6.10;5.60;;;;;;;;;;4986085;28;20451;-69
2022/08/28 03:53:18;;;;;;;6.50;6.03;;;;;;;;;;4988653;28;20807;-68
2022/08/28 03:55:44;;;;;;;6.07;5.77;;;;;;;;;;4988832;28;20429;-69
2022/08/28 03:58:10;;;;;;;5.30;5.10;;;;;;;;;;4988351;28;20481;-70
2022/08/28 04:00:38;;;;;;;5.90;5.50;;;;;;;;;;4985963;28;20437;-69
2022/08/28 04:03:04;;;;;;;6.40;6.00;;;;;;;;;;4985331;28;20884;-68
2022/08/28 04:05:30;;;;;;;6.17;5.87;;;;;;;;;;4985744;28;20429;-67
2022/08/28 04:07:56;;;;;;;7.43;6.83;;;;;;;;;;4986171;28;20955;-69
2022/08/28 04:10:22;;;;;;;11.63;6.67;;;;;;;;;;4986233;28;20813;-70
2022/08/28 04:12:48;;;;;;;7.23;6.63;;;;;;;;;;4986694;28;20434;-69
2022/08/28 04:15:14;;;;;;;6.23;5.83;;;;;;;;;;4988316;28;20480;-69
2022/08/28 04:17:40;;;;;;;13.93;6.70;;;;;;;;;;4989292;28;20460;-68
2022/08/28 04:20:07;;;;;;;6.60;6.23;;;;;;;;;;4985073;28;20455;-69
2022/08/28 04:22:34;;;;;;;7.80;7.20;;;;;;;;;;4984755;28;20441;-69
2022/08/28 04:25:00;;;;;;;8.97;7.40;;;;;;;;;;5004298;28;20433;-68
2022/08/28 04:27:26;;;;;;;7.13;6.70;;;;;;;;;;4986287;28;20476;-69
2022/08/28 04:29:52;;;;;;;10.03;8.00;;;;;;;;;;4987887;28;20929;-69
2022/08/28 04:32:18;;;;;;;9.10;8.27;;;;;;;;;;4999854;28;20450;-69
2022/08/28 04:34:44;;;;;;;13.47;8.37;;;;;;;;;;4985959;28;20527;-69
2022/08/28 04:37:11;;;;;;;8.47;7.87;;;;;;;;;;4988304;28;20441;-69
2022/08/28 04:39:37;;;;;;;5.07;4.87;;;;;;;;;;4987369;28;20540;-68
2022/08/28 04:42:03;;;;;;;7.17;6.47;;;;;;;;;;5002724;28;20903;-68
2022/08/28 04:44:29;;;;;;;8.80;6.40;;;;;;;;;;5000153;28;20452;-69
2022/08/28 04:46:55;;;;;;;6.10;5.50;;;;;;;;;;4987143;28;20426;-69
2022/08/28 04:49:21;;;;;;;6.63;6.23;;;;;;;;;;4984090;28;20465;-68
2022/08/28 04:51:47;;;;;;;8.00;6.67;;;;;;;;;;4984386;28;20448;-69
2022/08/28 04:54:13;;;;;;;7.97;6.53;;;;;;;;;;4990079;28;20433;-69
2022/08/28 04:56:40;;;;;;;6.23;5.77;;;;;;;;;;5005690;28;20440;-69
2022/08/28 04:59:06;;;;;;;5.50;5.30;;;;;;;;;;4990481;28;20480;-67
2022/08/28 05:01:32;;;;;;;6.00;5.60;;;;;;;;;;4990417;28;20491;-67
2022/08/28 05:03:59;;;;;;;5.10;4.90;;;;;;;;;;4984195;28;20417;-68
2022/08/28 05:06:27;;;;;;;5.50;5.20;;;;;;;;;;4991286;28;20433;-67
2022/08/28 05:08:53;;;;;;;9.73;7.03;;;;;;;;;;5007040;28;20429;-67
2022/08/28 05:11:20;;;;;;;6.50;6.07;;;;;;;;;;4990900;28;20535;-67
2022/08/28 05:13:47;;;;;;;6.53;5.80;;;;;;;;;;4983577;28;20452;-67
2022/08/28 05:16:14;;;;;;;6.20;5.70;;;;;;;;;;4992769;28;20448;-68
2022/08/28 05:18:40;;;;;;;5.30;5.00;;;;;;;;;;4991507;28;21006;-68
2022/08/28 05:21:13;;;;;;;4.10;3.97;;;;;;;;;;4991613;28;20425;-68
2022/08/28 05:23:39;;;;;;;4.03;3.93;;;;;;;;;;4990904;28;20449;-68
2022/08/28 05:26:05;;;;;;;3.43;3.43;;;;;;;;;;5004736;28;20527;-67
2022/08/28 05:28:31;;;;;;;3.60;3.50;;;;;;;;;;4988616;28;20477;-68
2022/08/28 05:31:07;;;;;;;3.87;3.67;;;;;;;;;;5004417;28;20452;-68
2022/08/28 05:33:33;;;;;;;4.43;4.10;;;;;;;;;;4991306;28;20437;-67
2022/08/28 05:36:03;;;;;;;4.70;4.30;;;;;;;;;;4990706;28;20455;-66
2022/08/28 05:38:29;;;;;;;7.93;6.80;;;;;;;;;;5005518;28;20306;-68
2022/08/28 05:40:55;;;;;;;8.17;7.37;;;;;;;;;;4989973;28;21112;-67
2022/08/28 05:43:21;;;;;;;13.40;8.83;;;;;;;;;;4991082;28;20448;-66
2022/08/28 05:45:56;;;;;;;15.70;10.47;;;;;;;;;;4990767;28;20436;-69
2022/08/28 05:48:22;;;;;;;20.77;13.40;;;;;;;;;;4986066;28;20460;-67
2022/08/28 05:50:48;;;;;;;24.17;13.90;;;;;;;;;;4986686;28;20436;-68
2022/08/28 05:53:16;;;;;;;21.40;15.00;;;;;;;;;;4987271;28;20455;-69
2022/08/28 05:55:42;;;;;;;23.23;16.50;;;;;;;;;;4990578;28;20429;-68
2022/08/28 06:00:52;;;;;;;22.43;15.40;;;;;;;;;;4990139;28;20209;-68
2022/08/28 06:03:18;;;;;;;17.17;14.57;;;;;;;;;;4985127;28;20804;-66
2022/08/28 06:05:44;;;;;;;17.97;14.50;;;;;;;;;;4988904;28;20542;-68
2022/08/28 06:08:10;;;;;;;22.63;17.03;;;;;;;;;;4991237;28;20450;-67
2022/08/28 06:10:42;;;;;;;21.97;16.90;;;;;;;;;;4988348;28;20475;-67
2022/08/28 06:13:08;;;;;;;21.63;16.07;;;;;;;;;;4991225;28;20425;-67
2022/08/28 06:15:40;;;;;;;20.97;15.33;;;;;;;;;;4988975;28;20447;-66
2022/08/28 06:18:06;;;;;;;19.67;14.40;;;;;;;;;;4990698;28;20841;-67
2022/08/28 06:20:36;;;;;;;23.23;15.90;;;;;;;;;;4987904;28;20437;-66
2022/08/28 06:23:02;;;;;;;29.53;13.90;;;;;;;;;;4991160;28;20417;-69
2022/08/28 06:25:28;;;;;;;19.33;13.53;;;;;;;;;;4987036;28;20458;-67
2022/08/28 06:27:54;;;;;;;25.00;14.90;;;;;;;;;;4987787;28;20464;-66
2022/08/28 06:30:20;;;;;;;20.37;14.40;;;;;;;;;;4989473;28;20650;-69
2022/08/28 06:32:47;;;;;;;32.13;13.90;;;;;;;;;;4989783;28;20435;-68
2022/08/28 06:35:13;;;;;;;20.20;15.30;;;;;;;;;;4990888;28;20810;-69
2022/08/28 06:37:39;;;;;;;28.90;17.67;;;;;;;;;;4989655;28;20974;-67
2022/08/28 06:40:05;;;;;;;26.13;17.10;;;;;;;;;;4986605;28;20842;-68
2022/08/28 06:42:32;;;;;;;24.90;16.70;;;;;;;;;;4986996;28;20444;-69
2022/08/28 06:44:58;;;;;;;27.57;15.90;;;;;;;;;;4990096;28;20773;-69
2022/08/28 06:47:24;;;;;;;21.00;16.50;;;;;;;;;;4990604;28;20940;-69
2022/08/28 06:49:50;;;;;;;22.13;15.93;;;;;;;;;;4987241;28;20934;-68
2022/08/28 06:52:16;;;;;;;16.90;15.20;;;;;;;;;;4989364;28;20766;-69
2022/08/28 06:54:41;;;;;;;17.77;15.87;;;;;;;;;;4990022;28;20465;-69
2022/08/28 06:57:08;;;;;;;20.83;16.07;;;;;;;;;;4986743;28;20512;-70
2022/08/28 06:59:34;;;;;;;18.03;16.20;;;;;;;;;;4983111;28;20279;-68
2022/08/28 07:02:01;;;;;;;20.70;15.30;;;;;;;;;;4978082;28;20441;-69
2022/08/28 07:04:28;;;;;;;18.63;16.53;;;;;;;;;;4988694;28;20925;-70
2022/08/28 07:06:54;;;;;;;20.80;15.87;;;;;;;;;;4985175;28;20448;-68
2022/08/28 07:09:20;;;;;;;21.40;17.97;;;;;;;;;;4986612;28;20528;-68
2022/08/28 07:11:46;;;;;;;24.00;17.30;;;;;;;;;;4986544;28;20815;-68
2022/08/28 07:14:12;;;;;;;21.33;17.20;;;;;;;;;;4989098;28;20444;-69
2022/08/28 07:16:39;;;;;;;20.80;17.57;;;;;;;;;;4989829;28;20436;-68
2022/08/28 07:19:10;;;;;;;21.73;18.10;;;;;;;;;;4978780;28;20248;-67
2022/08/28 07:21:36;;;;;;;19.13;16.70;;;;;;;;;;4983692;28;20866;-68
2022/08/28 07:24:03;;;;;;;21.77;15.97;;;;;;;;;;4983785;28;20885;-69
2022/08/28 07:26:30;;;;;;;24.20;17.93;;;;;;;;;;4986790;28;20436;-66
2022/08/28 07:28:56;;;;;;;25.67;17.57;;;;;;;;;;4987899;28;20572;-67
2022/08/28 07:31:24;;;;;;;20.88;18.25;;;;;;;;;;4984654;28;20517;-67
2022/08/28 07:33:51;;;;;;;23.67;16.17;;;;;;;;;;4990002;28;20949;-67
2022/08/28 07:36:18;;;;;;;22.73;17.73;;;;;;;;;;4987063;28;20425;-70
2022/08/28 07:38:44;;;;;;;21.23;16.87;;;;;;;;;;4989081;28;20480;-68
2022/08/28 07:41:17;;;;;;;17.50;15.40;;;;;;;;;;4988586;28;20433;-68
2022/08/28 07:46:28;;;;;;;18.57;16.67;;;;;;;;;;4988487;28;20589;-67
2022/08/28 07:48:54;;;;;;;22.27;17.53;;;;;;;;;;4986197;28;20464;-69
2022/08/28 07:51:20;;;;;;;25.50;18.60;;;;;;;;;;4986737;28;20425;-68
2022/08/28 07:53:46;;;;;;;22.47;17.77;;;;;;;;;;4988414;28;21002;-67
2022/08/28 07:56:12;;;;;;;25.80;17.30;;;;;;;;;;4982841;28;20437;-68
2022/08/28 07:58:39;;;;;;;17.97;15.83;;;;;;;;;;4985194;28;20858;-69
2022/08/28 08:01:05;;;;;;;19.47;17.07;;;;;;;;;;4985550;28;20512;-68
2022/08/28 08:03:31;;;;;;;17.87;15.97;;;;;;;;;;4987189;28;20467;-67
2022/08/28 08:05:59;;;;;;;18.90;16.90;;;;;;;;;;4984663;28;20805;-67
2022/08/28 08:08:25;;;;;;;24.07;17.70;;;;;;;;;;4986932;28;20805;-69
2022/08/28 08:11:07;;;;;;;22.33;16.97;;;;;;;;;;4988065;28;20429;-69
2022/08/28 08:13:36;;;;;;;17.43;15.67;;;;;;;;;;4986906;28;20445;-68
2022/08/28 08:16:05;;;;;;;17.30;15.43;;;;;;;;;;4988296;28;20452;-68
2022/08/28 08:18:32;;;;;;;19.00;16.53;;;;;;;;;;4989428;28;20480;-69
2022/08/28 08:20:58;;;;;;;17.97;14.87;;;;;;;;;;4983158;28;20437;-69
2022/08/28 08:23:24;;;;;;;17.23;15.23;;;;;;;;;;4987053;28;20571;-68
2022/08/28 08:25:54;;;;;;;19.70;15.83;;;;;;;;;;4989132;28;20441;-69
2022/08/28 08:28:20;;;;;;;19.53;15.17;;;;;;;;;;4993162;28;20500;-69
2022/08/28 08:30:46;;;;;;;17.83;14.53;;;;;;;;;;4995105;28;20527;-69
2022/08/28 08:33:12;;;;;;;18.03;16.10;;;;;;;;;;4992252;28;20441;-70
2022/08/28 08:35:38;;;;;;;20.13;14.70;;;;;;;;;;4992705;28;20429;-68
2022/08/28 08:38:06;;;;;;;18.80;14.47;;;;;;;;;;4994056;28;20476;-68
2022/08/28 08:40:32;;;;;;;17.33;15.53;;;;;;;;;;4994584;28;20846;-68
2022/08/28 08:43:01;;;;;;;16.13;14.53;;;;;;;;;;4994716;28;21005;-68
2022/08/28 08:45:29;;;;;;;17.63;15.80;;;;;;;;;;4994116;28;20531;-69
2022/08/28 08:47:55;;;;;;;22.13;18.40;;;;;;;;;;4989359;28;20934;-69
2022/08/28 08:50:21;;;;;;;17.70;15.70;;;;;;;;;;4994427;28;20420;-69
2022/08/28 08:53:06;;;;;;;15.40;13.80;;;;;;;;;;4995216;28;20963;-68
2022/08/28 08:55:41;;;;;;;17.43;15.77;;;;;;;;;;4992591;28;20452;-69
2022/08/28 08:58:20;;;;;;;20.13;16.30;;;;;;;;;;4992759;28;20538;-69
2022/08/28 09:00:53;;;;;;;16.83;15.07;;;;;;;;;;5008339;28;20440;-68
2022/08/28 09:03:22;;;;;;;30.57;15.07;;;;;;;;;;4994816;28;20436;-67
2022/08/28 09:05:52;;;;;;;20.70;16.80;;;;;;;;;;4990751;28;20466;-68
2022/08/28 09:08:25;;;;;;;23.13;16.60;;;;;;;;;;4993984;28;20499;-67
2022/08/28 09:10:54;;;;;;;17.63;15.77;;;;;;;;;;4994546;28;20433;-69
2022/08/28 09:13:25;;;;;;;16.93;15.23;;;;;;;;;;4993827;28;20463;-69
2022/08/28 09:15:51;;;;;;;17.90;15.87;;;;;;;;;;4994771;28;20520;-69
2022/08/28 09:18:20;;;;;;;18.00;16.20;;;;;;;;;;4993914;28;20575;-68
2022/08/28 09:20:49;;;;;;;14.53;13.03;;;;;;;;;;4989019;28;20444;-69
2022/08/28 09:23:15;;;;;;;21.53;16.47;;;;;;;;;;4988247;28;20420;-67
2022/08/28 09:25:46;;;;;;;17.93;15.77;;;;;;;;;;4991588;28;20499;-67
2022/08/28 09:28:17;;;;;;;16.90;14.37;;;;;;;;;;4990782;28;20825;-68
2022/08/28 09:30:44;;;;;;;18.50;16.43;;;;;;;;;;4993590;28;20520;-68
2022/08/28 09:33:10;;;;;;;18.30;15.50;;;;;;;;;;4995164;28;20921;-68
2022/08/28 09:35:37;;;;;;;16.73;15.00;;;;;;;;;;4994902;28;20512;-68
2022/08/28 09:38:19;;;;;;;16.13;14.40;;;;;;;;;;4990640;28;20518;-68
2022/08/28 09:43:32;;;;;;;13.67;12.47;;;;;;;;;;4987360;28;20443;-68
2022/08/28 09:46:17;;;;;;;17.40;12.60;;;;;;;;;;4990938;28;20468;-68
2022/08/28 09:48:44;;;;;;;15.73;13.97;;;;;;;;;;4988149;28;20523;-68
2022/08/28 09:51:10;;;;;;;17.57;14.93;;;;;;;;;;4988635;28;20479;-68
2022/08/28 09:53:40;;;;;;;16.70;15.10;;;;;;;;;;4989419;28;20846;-68
2022/08/28 09:56:12;;;;;;;9.20;8.47;;;;;;;;;;4991381;28;20967;-68
2022/08/28 09:58:47;;;;;;;13.37;11.97;;;;;;;;;;4989691;28;20485;-68
2022/08/28 10:01:22;;;;;;;19.67;13.10;;;;;;;;;;4989411;28;21012;-69
2022/08/28 10:03:52;;;;;;;13.17;11.77;;;;;;;;;;4990897;28;20428;-68
2022/08/28 10:06:25;;;;;;;14.07;12.77;;;;;;;;;;4989610;28;20428;-68
2022/08/28 10:08:58;;;;;;;13.80;12.40;;;;;;;;;;4991111;28;20437;-69
2022/08/28 10:11:30;;;;;;;17.67;12.57;;;;;;;;;;4991043;28;20920;-69
2022/08/28 10:14:01;;;;;;;18.17;12.83;;;;;;;;;;4987633;28;20469;-68
2022/08/28 10:16:27;;;;;;;13.10;11.10;;;;;;;;;;4987780;28;20432;-69
2022/08/28 10:19:12;;;;;;;14.27;12.63;;;;;;;;;;4987177;28;20491;-68
2022/08/28 10:21:47;;;;;;;13.13;11.93;;;;;;;;;;4991325;28;20463;-67
2022/08/28 10:24:33;;;;;;;13.60;11.00;;;;;;;;;;4987761;28;20786;-67
2022/08/28 10:26:59;;;;;;;11.93;10.83;;;;;;;;;;4990135;28;20429;-69
2022/08/28 10:29:46;;;;;;;11.43;10.37;;;;;;;;;;4987872;28;20484;-68
2022/08/28 10:32:40;;;;;;;12.07;9.90;;;;;;;;;;4972909;28;20252;-69
2022/08/28 10:35:26;;;;;;;10.73;9.83;;;;;;;;;;4984958;28;20435;-68
2022/08/28 10:37:58;;;;;;;14.53;9.53;;;;;;;;;;4989544;28;20476;-69
2022/08/28 10:40:27;;;;;;;11.80;9.80;;;;;;;;;;4987336;28;20503;-69
2022/08/28 10:43:03;;;;;;;9.80;9.10;;;;;;;;;;4991592;28;20429;-70
2022/08/28 10:45:31;;;;;;;10.20;9.30;;;;;;;;;;4987709;28;20540;-69
2022/08/28 10:47:59;;;;;;;9.77;9.03;;;;;;;;;;4991014;28;20439;-68
2022/08/28 10:50:32;;;;;;;9.70;8.97;;;;;;;;;;4990190;28;20901;-68
2022/08/28 10:53:16;;;;;;;12.20;9.37;;;;;;;;;;4990416;28;20500;-68
2022/08/28 10:55:48;;;;;;;8.97;8.27;;;;;;;;;;4989001;28;20524;-68
2022/08/28 10:58:15;;;;;;;10.97;8.67;;;;;;;;;;5004241;28;20476;-67
2022/08/28 11:00:44;;;;;;;7.80;7.30;;;;;;;;;;4991765;28;20894;-69
2022/08/28 11:03:12;;;;;;;7.47;7.00;;;;;;;;;;4989323;28;20441;-67
2022/08/28 11:05:47;;;;;;;8.77;7.93;;;;;;;;;;4990960;28;20437;-67
2022/08/28 11:08:21;;;;;;;8.73;7.47;;;;;;;;;;4991247;28;20426;-68
2022/08/28 11:10:51;;;;;;;8.07;7.67;;;;;;;;;;4990017;28;20465;-69
2022/08/28 11:13:36;;;;;;;6.50;5.77;;;;;;;;;;4984595;28;20448;-69
2022/08/28 11:16:09;;;;;;;8.43;7.57;;;;;;;;;;5005235;28;20976;-70
2022/08/28 11:18:58;;;;;;;7.73;7.23;;;;;;;;;;4991056;28;20575;-69
2022/08/28 11:21:43;;;;;;;7.37;6.90;;;;;;;;;;4988282;28;20937;-69
2022/08/28 11:24:20;;;;;;;7.30;6.63;;;;;;;;;;4990778;28;20984;-69
2022/08/28 11:26:58;;;;;;;7.37;7.00;;;;;;;;;;4988942;28;21119;-69
2022/08/28 11:29:44;;;;;;;7.40;6.70;;;;;;;;;;4991332;28;20460;-69
2022/08/28 11:32:46;;;;;;;6.13;5.83;;;;;;;;;;4990073;28;20421;-70
2022/08/28 11:35:12;;;;;;;5.63;5.33;;;;;;;;;;4948831;29;21027;-69
2022/08/28 11:37:50;;;;;;;6.17;5.77;;;;;;;;;;4981335;28;20461;-69
2022/08/28 11:40:37;;;;;;;9.53;6.90;;;;;;;;;;4987021;28;20214;-69
2022/08/28 11:43:14;;;;;;;6.07;5.70;;;;;;;;;;4980775;28;20472;-69
2022/08/28 11:45:45;;;;;;;6.33;6.00;;;;;;;;;;4986004;28;20444;-70
2022/08/28 11:48:20;;;;;;;7.27;6.67;;;;;;;;;;4989311;28;20916;-72
2022/08/28 11:50:54;;;;;;;6.37;6.07;;;;;;;;;;4985780;28;20456;-71
2022/08/28 11:53:25;;;;;;;6.83;6.40;;;;;;;;;;4988843;28;20528;-72
2022/08/28 11:56:10;;;;;;;6.20;5.90;;;;;;;;;;4988564;28;20437;-69
2022/08/28 11:58:40;;;;;;;6.30;5.83;;;;;;;;;;4985613;28;20892;-67
2022/08/28 12:01:08;;;;;;;6.50;6.10;;;;;;;;;;4986039;28;20479;-70
2022/08/28 12:03:53;;;;;;;6.53;5.97;;;;;;;;;;4988005;28;20496;-72
2022/08/28 12:06:39;;;;;;;5.70;5.37;;;;;;;;;;4989264;28;20441;-70
2022/08/28 12:09:04;;;;;;;7.00;6.40;;;;;;;;;;4987155;28;20848;-72
2022/08/28 12:11:39;;;;;;;7.07;6.47;;;;;;;;;;4987775;28;20922;-71
2022/08/28 12:14:26;;;;;;;10.33;5.90;;;;;;;;;;4987427;28;20464;-72
2022/08/28 12:16:58;;;;;;;6.10;5.70;;;;;;;;;;4989209;28;20468;-71
2022/08/28 12:19:27;;;;;;;6.13;5.93;;;;;;;;;;4988497;28;20510;-72
2022/08/28 12:21:54;;;;;;;6.20;5.90;;;;;;;;;;4989263;28;20435;-72
2022/08/28 12:24:22;;;;;;;6.10;5.50;;;;;;;;;;4987702;28;20453;-71
2022/08/28 12:26:51;;;;;;;6.77;6.10;;;;;;;;;;4990188;28;20448;-72
2022/08/28 12:29:26;;;;;;;6.20;5.83;;;;;;;;;;4987910;28;20448;-72
2022/08/28 12:32:13;;;;;;;5.60;5.20;;;;;;;;;;4988236;28;20433;-71
2022/08/28 12:34:42;;;;;;;6.00;5.30;;;;;;;;;;4988640;28;20479;-72
2022/08/28 12:37:27;;;;;;;6.23;5.83;;;;;;;;;;4989629;28;20457;-72
2022/08/28 12:39:54;;;;;;;6.73;6.33;;;;;;;;;;4987058;28;20480;-72
2022/08/28 12:42:23;;;;;;;5.43;5.23;;;;;;;;;;4989126;28;20817;-72
2022/08/28 12:44:49;;;;;;;7.33;5.27;;;;;;;;;;4977162;28;20437;-71
2022/08/28 12:47:19;;;;;;;5.30;5.00;;;;;;;;;;5002682;28;20437;-68
2022/08/28 12:49:45;;;;;;;7.90;5.83;;;;;;;;;;4989008;28;20763;-69
2022/08/28 12:52:11;;;;;;;6.20;5.70;;;;;;;;;;4989822;28;20424;-72
2022/08/28 12:54:37;;;;;;;6.03;5.63;;;;;;;;;;4987630;28;20456;-70
2022/08/28 12:57:04;;;;;;;5.07;4.77;;;;;;;;;;4989654;28;20425;-68
2022/08/28 12:59:33;;;;;;;4.80;4.53;;;;;;;;;;4985605;28;20488;-71
2022/08/28 13:02:11;;;;;;;6.37;6.07;;;;;;;;;;4984421;28;20433;-69
2022/08/28 13:04:39;;;;;;;4.83;4.63;;;;;;;;;;4984119;28;20445;-72
2022/08/28 13:07:13;;;;;;;5.40;4.70;;;;;;;;;;4989534;28;20413;-72
2022/08/28 13:09:44;;;;;;;4.60;4.50;;;;;;;;;;4988033;28;20433;-71
2022/08/28 13:12:17;;;;;;;5.40;4.87;;;;;;;;;;4988777;28;20770;-72
2022/08/28 13:14:44;;;;;;;5.13;4.80;;;;;;;;;;4993004;28;20862;-72
2022/08/28 13:17:12;;;;;;;5.43;4.53;;;;;;;;;;4990606;28;20465;-72
2022/08/28 13:19:38;;;;;;;5.70;5.20;;;;;;;;;;4986511;28;20527;-71
2022/08/28 13:22:08;;;;;;;5.67;5.20;;;;;;;;;;4985564;28;20457;-70
2022/08/28 13:24:34;;;;;;;5.33;4.90;;;;;;;;;;5003048;28;20441;-70
2022/08/28 13:27:15;;;;;;;6.00;5.77;;;;;;;;;;4992452;28;20761;-73
2022/08/28 13:29:48;;;;;;;4.53;4.23;;;;;;;;;;4992496;28;20429;-71
2022/08/28 13:32:17;;;;;;;4.80;4.60;;;;;;;;;;4993154;28;20935;-72
2022/08/28 13:35:02;;;;;;;4.80;4.70;;;;;;;;;;4991857;28;20488;-71
2022/08/28 13:38:00;;;;;;;11.20;4.60;;;;;;;;;;4990416;28;20437;-71
2022/08/28 13:40:31;;;;;;;5.80;4.63;;;;;;;;;;4991641;28;20429;-70
2022/08/28 13:43:00;;;;;;;4.73;4.53;;;;;;;;;;4991103;28;20429;-72
2022/08/28 13:45:26;;;;;;;4.13;3.93;;;;;;;;;;4990450;28;20425;-72
2022/08/28 13:47:52;;;;;;;8.17;5.00;;;;;;;;;;4986955;28;20500;-72
2022/08/28 13:50:18;;;;;;;4.97;4.73;;;;;;;;;;4990536;28;20786;-71
2022/08/28 13:52:44;;;;;;;5.53;5.23;;;;;;;;;;4988783;28;20436;-73
2022/08/28 13:55:10;;;;;;;5.37;5.07;;;;;;;;;;4993067;28;20512;-71
2022/08/28 13:57:36;;;;;;;4.43;4.13;;;;;;;;;;4991906;28;20521;-73
2022/08/28 14:00:03;;;;;;;4.80;4.60;;;;;;;;;;4989972;28;20445;-72
2022/08/28 14:05:14;;;;;;;4.30;4.10;;;;;;;;;;4989559;28;20456;-71
2022/08/28 14:07:40;;;;;;;4.10;3.90;;;;;;;;;;4989833;28;20445;-71
2022/08/28 14:10:07;;;;;;;4.00;3.67;;;;;;;;;;4987921;28;20445;-71
2022/08/28 14:12:33;;;;;;;4.60;4.23;;;;;;;;;;4989458;28;20437;-67
2022/08/28 14:14:59;;;;;;;5.00;4.77;;;;;;;;;;4991859;28;20437;-68
2022/08/28 14:17:25;;;;;;;5.00;4.70;;;;;;;;;;4989872;28;20539;-67
2022/08/28 14:19:51;;;;;;;12.40;5.90;;;;;;;;;;4991546;28;21082;-67
2022/08/28 14:22:17;;;;;;;5.60;5.10;;;;;;;;;;4990140;28;20826;-72
2022/08/28 14:24:43;;;;;;;5.00;4.80;;;;;;;;;;4988955;28;20464;-70
2022/08/28 14:27:09;;;;;;;5.73;5.43;;;;;;;;;;4988347;28;20440;-70
2022/08/28 14:29:36;;;;;;;4.03;3.73;;;;;;;;;;4988189;28;20885;-72
2022/08/28 14:32:03;;;;;;;6.57;5.60;;;;;;;;;;4988658;28;20517;-72
2022/08/28 14:34:30;;;;;;;5.80;5.60;;;;;;;;;;4989826;28;20422;-71
2022/08/28 14:36:56;;;;;;;5.67;5.47;;;;;;;;;;4989907;28;20480;-69
2022/08/28 14:39:23;;;;;;;7.40;6.70;;;;;;;;;;4990662;28;20520;-69
2022/08/28 14:41:50;;;;;;;4.70;4.40;;;;;;;;;;4986343;28;20492;-69
2022/08/28 14:44:16;;;;;;;7.73;5.37;;;;;;;;;;4990601;28;20470;-69
2022/08/28 14:46:44;;;;;;;5.70;5.30;;;;;;;;;;4983831;28;20464;-69
2022/08/28 14:49:12;;;;;;;5.00;4.80;;;;;;;;;;4987548;28;20436;-69
2022/08/28 14:51:38;;;;;;;5.50;5.20;;;;;;;;;;4988766;28;20448;-68
2022/08/28 14:54:05;;;;;;;4.80;4.50;;;;;;;;;;4991236;28;20426;-68
2022/08/28 14:56:31;;;;;;;5.87;5.40;;;;;;;;;;4991659;28;20915;-69
2022/08/28 14:58:58;;;;;;;5.00;4.80;;;;;;;;;;4990968;28;20551;-70
2022/08/28 15:01:26;;;;;;;7.70;5.20;;;;;;;;;;5006508;28;20447;-68